Time;durP1;ratioP1;P1;durP2;ratioP2;P2;SDS_P1;SDS_P2;PMS_P1;PMS_P2;Temp;Humidity;BMP_temperature;BMP_pressure;BME280_temperature;BME280_humidity;BME280_pressure;Samples;Min_cycle;Max_cycle;Signal;HPM_P1;HPM_P2
2021/08/03 00:01:40;;;;;;;2.92;1.38;;;14.10;99.90;;;;;;5075466;28;20032;-67
2021/08/03 00:04:18;;;;;;;4.93;1.00;;;14.10;99.90;;;;;;5071160;28;20644;-66
2021/08/03 00:06:46;;;;;;;7.20;1.00;;;14.10;99.90;;;;;;5068614;28;20032;-66
2021/08/03 00:09:13;;;;;;;4.53;1.55;;;14.10;99.90;;;;;;5076557;28;20399;-66
2021/08/03 00:11:43;;;;;;;5.00;1.00;;;14.00;99.90;;;;;;5093081;28;20511;-66
2021/08/03 00:14:09;;;;;;;4.25;1.25;;;14.00;99.90;;;;;;5085342;28;20028;-66
2021/08/03 00:16:38;;;;;;;5.53;1.67;;;13.90;99.90;;;;;;5089168;28;20036;-67
2021/08/03 00:19:04;;;;;;;2.47;0.85;;;13.90;99.90;;;;;;5089666;28;20043;-66
2021/08/03 00:21:30;;;;;;;2.58;1.02;;;13.90;99.90;;;;;;5089208;28;20031;-66
2021/08/03 00:23:56;;;;;;;3.33;1.13;;;13.80;99.90;;;;;;5089805;28;20523;-66
2021/08/03 00:26:22;;;;;;;3.42;0.88;;;13.80;99.90;;;;;;5088886;28;20119;-67
2021/08/03 00:28:51;;;;;;;5.03;1.17;;;13.80;99.90;;;;;;5088746;28;20571;-66
2021/08/03 00:31:19;;;;;;;4.25;1.27;;;13.80;99.90;;;;;;5079654;28;20032;-66
2021/08/03 00:33:47;;;;;;;3.55;1.10;;;13.80;99.90;;;;;;5089042;28;20119;-66
2021/08/03 00:36:14;;;;;;;3.35;1.10;;;13.90;99.90;;;;;;5089289;28;20504;-66
2021/08/03 00:38:40;;;;;;;1.63;0.90;;;13.90;99.90;;;;;;5089585;28;20049;-67
2021/08/03 00:41:10;;;;;;;4.63;1.20;;;13.80;99.90;;;;;;5092060;28;20098;-66
2021/08/03 00:43:36;;;;;;;;;;;13.90;99.90;;;;;;5089401;28;20111;-68
2021/08/03 00:46:02;;;;;;;7.93;2.00;;;13.90;99.90;;;;;;5088895;28;20011;-66
2021/08/03 00:48:27;;;;;;;1.80;0.90;;;13.80;99.90;;;;;;5089581;28;20030;-66
2021/08/03 00:50:53;;;;;;;4.35;1.40;;;13.80;99.90;;;;;;5088598;28;20035;-67
2021/08/03 00:53:18;;;;;;;3.72;1.48;;;13.70;99.90;;;;;;5089155;28;20510;-66
2021/08/03 00:55:45;;;;;;;2.95;1.38;;;13.70;99.90;;;;;;5088672;28;20056;-66
2021/08/03 00:58:12;;;;;;;4.35;1.33;;;13.70;99.90;;;;;;5089263;28;20056;-66
2021/08/03 01:00:38;;;;;;;3.00;1.10;;;13.60;99.90;;;;;;5085214;28;20046;-67
2021/08/03 01:03:04;;;;;;;4.90;1.10;;;13.60;99.90;;;;;;5079347;28;20449;-67
2021/08/03 01:06:01;;;;;;;3.42;1.27;;;13.60;99.90;;;;;;5069070;28;20546;-66
2021/08/03 01:08:46;;;;;;;5.32;1.20;;;13.60;99.90;;;;;;5063125;28;20039;-66
2021/08/03 01:11:24;;;;;;;3.28;1.10;;;13.60;99.90;;;;;;5065165;28;20484;-66
2021/08/03 01:14:07;;;;;;;5.07;1.63;;;13.60;99.90;;;;;;5067506;28;20031;-66
2021/08/03 01:16:36;;;;;;;3.95;1.35;;;13.60;99.90;;;;;;5088547;28;20427;-66
2021/08/03 01:19:37;;;;;;;5.15;1.60;;;13.60;99.90;;;;;;5088791;28;20036;-66
2021/08/03 01:22:28;;;;;;;3.95;1.10;;;13.60;99.90;;;;;;5088667;28;20396;-66
2021/08/03 01:25:11;;;;;;;2.60;1.10;;;13.60;99.90;;;;;;5087486;28;20044;-66
2021/08/03 01:28:00;;;;;;;2.17;0.80;;;13.60;99.90;;;;;;5080397;28;20511;-66
2021/08/03 01:30:26;;;;;;;3.05;1.08;;;13.60;99.90;;;;;;5087663;28;20028;-67
2021/08/03 01:32:54;;;;;;;3.90;1.40;;;13.60;99.90;;;;;;5079354;28;20035;-66
2021/08/03 01:35:22;;;;;;;4.78;1.95;;;13.60;99.90;;;;;;5088152;28;20055;-67
2021/08/03 01:37:48;;;;;;;4.28;1.27;;;13.60;99.90;;;;;;5092096;28;20054;-67
2021/08/03 01:40:14;;;;;;;2.28;1.10;;;13.50;99.90;;;;;;5092430;28;20047;-67
2021/08/03 01:42:42;;;;;;;13.43;1.15;;;13.50;99.90;;;;;;5092608;28;20028;-66
2021/08/03 01:45:10;;;;;;;6.63;1.40;;;13.40;99.90;;;;;;5091571;28;20035;-67
2021/08/03 01:47:37;;;;;;;1.98;0.85;;;13.40;99.90;;;;;;5089030;28;20042;-66
2021/08/03 01:50:04;;;;;;;3.30;1.15;;;13.40;99.90;;;;;;5092574;28;20028;-66
2021/08/03 01:52:32;;;;;;;4.32;1.10;;;13.30;99.90;;;;;;5091743;28;20035;-66
2021/08/03 01:54:58;;;;;;;3.80;1.15;;;13.30;99.90;;;;;;5092710;28;20024;-66
2021/08/03 01:57:24;;;;;;;1.70;0.93;;;13.30;99.90;;;;;;5089810;28;20024;-67
2021/08/03 01:59:52;;;;;;;2.70;1.45;;;13.30;99.90;;;;;;5082179;28;20032;-67
2021/08/03 02:02:19;;;;;;;4.13;1.63;;;13.30;99.90;;;;;;5091810;28;20209;-67
2021/08/03 02:04:47;;;;;;;4.13;1.20;;;13.30;99.90;;;;;;5092364;28;20035;-66
2021/08/03 02:07:15;;;;;;;3.28;0.93;;;13.30;99.90;;;;;;5090888;28;20029;-67
2021/08/03 02:09:43;;;;;;;2.17;1.00;;;13.20;99.90;;;;;;5091627;28;20099;-65
2021/08/03 02:12:10;;;;;;;1.85;0.82;;;13.20;99.90;;;;;;5091787;28;20056;-66
2021/08/03 02:14:37;;;;;;;3.72;1.00;;;13.20;99.90;;;;;;5091910;28;20036;-67
2021/08/03 02:17:03;;;;;;;3.53;1.30;;;13.20;99.90;;;;;;5087543;28;20507;-67
2021/08/03 02:19:28;;;;;;;1.67;0.70;;;13.20;99.90;;;;;;5091949;28;20064;-65
2021/08/03 02:21:54;;;;;;;2.20;0.77;;;13.20;99.90;;;;;;5082613;28;20136;-65
2021/08/03 02:24:20;;;;;;;3.42;0.82;;;13.20;99.90;;;;;;5092476;28;20299;-66
2021/08/03 02:26:45;;;;;;;2.15;0.93;;;13.20;99.90;;;;;;5092226;28;20036;-67
2021/08/03 02:29:11;;;;;;;1.85;0.82;;;13.20;99.90;;;;;;5092056;28;20097;-67
2021/08/03 02:31:57;;;;;;;4.45;0.90;;;13.20;99.90;;;;;;5090797;28;20123;-67
2021/08/03 02:34:28;;;;;;;4.32;1.15;;;13.20;99.90;;;;;;5090665;28;20036;-67
2021/08/03 02:36:58;;;;;;;1.83;0.93;;;13.20;99.90;;;;;;5091528;28;20797;-67
2021/08/03 02:39:26;;;;;;;2.60;1.08;;;13.20;99.90;;;;;;5090914;28;20127;-67
2021/08/03 02:41:53;;;;;;;3.75;1.52;;;13.20;99.90;;;;;;5090730;28;20542;-68
2021/08/03 02:44:20;;;;;;;2.38;0.60;;;13.20;99.90;;;;;;5084098;28;20048;-67
2021/08/03 02:46:53;;;;;;;3.90;0.80;;;13.30;99.90;;;;;;5090149;28;20028;-67
2021/08/03 02:50:05;;;;;;;1.80;0.68;;;13.30;99.90;;;;;;5090316;28;20528;-67
2021/08/03 02:52:17;;;;;;;2.83;0.80;;;13.20;99.90;;;;;;5065570;28;20078;-67
2021/08/03 02:54:47;;;;;;;3.03;1.33;;;13.30;99.90;;;;;;5070361;28;20025;-66
2021/08/03 02:57:15;;;;;;;4.43;0.70;;;13.30;99.90;;;;;;5069515;28;20067;-67
2021/08/03 02:59:44;;;;;;;2.50;0.63;;;13.20;99.90;;;;;;5068999;28;20087;-67
2021/08/03 03:02:14;;;;;;;2.92;1.73;;;13.30;99.90;;;;;;5058083;28;20040;-67
2021/08/03 03:04:52;;;;;;;3.60;0.82;;;13.20;99.90;;;;;;5067827;28;20033;-67
2021/08/03 03:07:24;;;;;;;2.38;0.82;;;13.20;99.90;;;;;;5069674;28;20036;-66
2021/08/03 03:09:53;;;;;;;2.67;0.63;;;13.10;99.90;;;;;;5070421;28;20124;-67
2021/08/03 03:12:20;;;;;;;2.63;0.70;;;13.10;99.90;;;;;;5069797;28;20033;-67
2021/08/03 03:14:47;;;;;;;2.33;0.88;;;13.10;99.90;;;;;;5060617;28;20065;-67
2021/08/03 03:17:15;;;;;;;0.93;0.70;;;13.10;99.90;;;;;;5069511;28;20044;-67
2021/08/03 03:19:42;;;;;;;8.55;0.88;;;13.10;99.90;;;;;;5070055;28;20036;-66
2021/08/03 03:22:09;;;;;;;1.30;0.50;;;13.10;99.90;;;;;;5069006;28;20060;-67
2021/08/03 03:24:37;;;;;;;2.67;0.63;;;13.00;99.90;;;;;;5070291;28;20483;-67
2021/08/03 03:27:04;;;;;;;1.17;0.57;;;13.00;99.90;;;;;;5069636;28;20123;-67
2021/08/03 03:29:30;;;;;;;1.15;0.50;;;13.00;99.90;;;;;;5070293;28;20033;-67
2021/08/03 03:31:57;;;;;;;1.80;0.68;;;13.00;99.90;;;;;;5070236;28;20036;-66
2021/08/03 03:34:25;;;;;;;2.55;0.70;;;13.00;99.90;;;;;;5070040;28;20036;-67
2021/08/03 03:36:52;;;;;;;4.50;0.80;;;13.00;99.90;;;;;;5061251;28;20049;-67
2021/08/03 03:39:18;;;;;;;3.15;0.65;;;13.00;99.90;;;;;;5068742;28;20039;-67
2021/08/03 03:41:48;;;;;;;1.13;0.50;;;13.00;99.90;;;;;;5069881;28;20048;-67
2021/08/03 03:44:14;;;;;;;2.50;0.70;;;13.00;99.90;;;;;;5068713;28;20037;-67
2021/08/03 03:46:59;;;;;;;1.95;0.60;;;12.90;99.90;;;;;;5069660;28;20132;-66
2021/08/03 03:49:31;;;;;;;1.70;0.70;;;12.90;99.90;;;;;;5068913;28;20392;-67
2021/08/03 03:52:01;;;;;;;3.45;0.70;;;12.90;99.90;;;;;;5065426;28;20492;-66
2021/08/03 03:54:30;;;;;;;3.67;0.47;;;12.90;99.90;;;;;;5065413;28;20032;-67
2021/08/03 03:56:58;;;;;;;2.00;0.70;;;12.90;99.90;;;;;;5059584;28;20079;-67
2021/08/03 03:59:24;;;;;;;2.20;0.55;;;12.90;99.90;;;;;;5068674;28;20063;-67
2021/08/03 04:01:52;;;;;;;1.02;0.60;;;12.80;99.90;;;;;;5068019;28;21818;-67
2021/08/03 04:04:19;;;;;;;3.17;0.70;;;12.90;99.90;;;;;;5068883;28;20113;-67
2021/08/03 04:06:45;;;;;;;2.67;0.60;;;12.80;99.90;;;;;;5069517;28;20024;-66
2021/08/03 04:09:22;;;;;;;2.20;0.63;;;12.80;99.90;;;;;;5069457;28;20038;-65
2021/08/03 04:11:49;;;;;;;3.67;0.70;;;12.90;99.90;;;;;;5069377;28;20058;-65
2021/08/03 04:14:22;;;;;;;1.13;0.68;;;12.90;99.90;;;;;;5068721;28;20124;-64
2021/08/03 04:16:48;;;;;;;1.40;0.55;;;12.90;99.90;;;;;;5069264;28;20124;-65
2021/08/03 04:19:14;;;;;;;3.65;0.90;;;12.90;99.90;;;;;;5058781;28;20028;-67
2021/08/03 04:21:39;;;;;;;3.95;0.70;;;12.90;99.90;;;;;;5068919;28;20114;-67
2021/08/03 04:24:05;;;;;;;3.33;0.65;;;12.90;99.90;;;;;;5068681;28;20105;-67
2021/08/03 04:26:32;;;;;;;4.07;0.63;;;12.90;99.90;;;;;;5058584;28;20028;-66
2021/08/03 04:28:57;;;;;;;2.28;0.80;;;12.80;99.90;;;;;;5059035;28;20036;-67
2021/08/03 04:31:23;;;;;;;3.22;0.60;;;12.90;99.90;;;;;;5061993;28;20037;-67
2021/08/03 04:33:50;;;;;;;1.98;0.63;;;12.90;99.90;;;;;;5068197;28;20032;-67
2021/08/03 04:36:16;;;;;;;3.88;0.63;;;12.90;99.90;;;;;;5066642;28;20116;-67
2021/08/03 04:38:42;;;;;;;1.60;0.63;;;13.00;99.90;;;;;;5067861;28;20032;-66
2021/08/03 04:41:07;;;;;;;1.92;0.60;;;13.10;99.90;;;;;;5068116;28;20496;-67
2021/08/03 04:43:33;;;;;;;2.63;0.60;;;13.10;99.90;;;;;;5068004;28;20121;-64
2021/08/03 04:45:58;;;;;;;3.25;0.75;;;13.20;99.90;;;;;;5068766;28;20494;-65
2021/08/03 04:48:24;;;;;;;3.90;0.45;;;13.30;99.90;;;;;;5068785;28;20120;-65
2021/08/03 04:50:50;;;;;;;3.17;0.63;;;13.30;99.90;;;;;;5069435;28;20032;-65
2021/08/03 04:53:15;;;;;;;0.77;0.45;;;13.40;99.90;;;;;;5068489;28;20024;-67
2021/08/03 04:55:41;;;;;;;3.47;0.47;;;13.40;99.90;;;;;;5068280;28;20115;-67
2021/08/03 04:58:06;;;;;;;5.20;1.17;;;13.50;99.90;;;;;;5068428;28;20041;-67
2021/08/03 05:00:32;;;;;;;3.65;0.73;;;13.50;99.90;;;;;;5068437;28;20067;-67
2021/08/03 05:02:58;;;;;;;4.07;0.90;;;13.50;99.90;;;;;;5065081;28;20556;-67
2021/08/03 05:05:24;;;;;;;3.58;0.60;;;13.60;99.90;;;;;;5067640;28;20037;-68
2021/08/03 05:08:00;;;;;;;1.30;0.70;;;13.60;99.90;;;;;;5065417;28;20059;-68
2021/08/03 05:10:27;;;;;;;4.32;1.25;;;13.70;99.90;;;;;;5078597;28;20033;-68
2021/08/03 05:12:53;;;;;;;1.63;0.82;;;13.70;99.90;;;;;;5066354;28;20090;-68
2021/08/03 05:15:19;;;;;;;2.85;0.82;;;13.80;99.90;;;;;;5064340;28;20044;-68
2021/08/03 05:17:45;;;;;;;3.35;0.73;;;13.90;99.90;;;;;;5067066;28;20439;-68
2021/08/03 05:20:12;;;;;;;2.53;0.88;;;13.90;99.90;;;;;;5067132;28;20555;-67
2021/08/03 05:22:37;;;;;;;1.65;0.70;;;14.00;99.90;;;;;;5066872;28;20230;-67
2021/08/03 05:25:04;;;;;;;4.13;0.90;;;14.10;99.90;;;;;;5065300;28;20111;-68
2021/08/03 05:27:29;;;;;;;4.65;0.80;;;14.10;99.90;;;;;;5066259;28;20139;-68
2021/08/03 05:29:55;;;;;;;3.28;0.70;;;14.20;99.90;;;;;;5067822;28;20536;-66
2021/08/03 05:32:21;;;;;;;3.20;0.70;;;14.30;99.90;;;;;;5065986;28;20037;-66
2021/08/03 05:34:46;;;;;;;4.85;0.80;;;14.30;99.90;;;;;;5067282;28;20044;-66
2021/08/03 05:37:12;;;;;;;8.73;1.35;;;14.50;99.90;;;;;;5067067;28;20040;-65
2021/08/03 05:39:38;;;;;;;1.85;0.65;;;14.60;99.90;;;;;;5066819;28;20392;-66
2021/08/03 05:42:04;;;;;;;3.25;0.75;;;14.80;99.90;;;;;;5065692;28;20048;-66
2021/08/03 05:44:30;;;;;;;1.42;0.30;;;15.00;99.90;;;;;;5067880;28;20036;-66
2021/08/03 05:46:58;;;;;;;3.92;0.40;;;15.20;99.90;;;;;;5068163;28;20039;-66
2021/08/03 05:49:23;;;;;;;6.22;0.63;;;15.50;99.90;;;;;;5067197;28;20454;-66
2021/08/03 05:51:49;;;;;;;1.30;0.35;;;15.60;99.90;;;;;;5068236;28;20108;-66
2021/08/03 05:54:15;;;;;;;2.40;0.65;;;15.80;99.90;;;;;;5066758;28;20032;-66
2021/08/03 05:56:41;;;;;;;3.85;0.60;;;15.80;99.90;;;;;;5065988;28;20110;-66
2021/08/03 05:59:07;;;;;;;2.80;0.75;;;15.90;99.90;;;;;;5067640;28;20424;-65
2021/08/03 06:01:33;;;;;;;2.10;0.68;;;16.00;99.90;;;;;;5066592;28;20025;-66
2021/08/03 06:03:58;;;;;;;5.40;0.52;;;16.00;99.90;;;;;;5087957;28;20039;-66
2021/08/03 06:06:28;;;;;;;2.00;1.35;;;16.00;99.90;;;;;;5088268;28;20046;-66
2021/08/03 06:08:56;;;;;;;1.45;0.50;;;16.20;99.90;;;;;;5087425;28;20036;-67
2021/08/03 06:11:24;;;;;;;1.35;0.43;;;16.30;99.90;;;;;;5082835;28;20039;-67
2021/08/03 06:13:53;;;;;;;3.47;0.63;;;16.30;99.90;;;;;;5086190;28;20063;-67
2021/08/03 06:16:24;;;;;;;2.05;0.32;;;16.30;99.90;;;;;;5068186;28;20032;-67
2021/08/03 06:18:50;;;;;;;0.82;0.35;;;16.20;99.90;;;;;;5084413;28;20027;-67
2021/08/03 06:21:17;;;;;;;3.20;0.60;;;16.20;99.90;;;;;;5088244;28;20085;-67
2021/08/03 06:23:44;;;;;;;2.85;0.95;;;16.30;99.90;;;;;;5079995;28;20046;-68
2021/08/03 06:26:10;;;;;;;2.70;0.60;;;16.50;99.90;;;;;;5066410;28;20032;-67
2021/08/03 06:28:36;;;;;;;2.47;0.55;;;16.70;99.90;;;;;;5074125;28;20032;-68
2021/08/03 06:31:03;;;;;;;3.42;0.40;;;17.00;99.90;;;;;;5070841;28;20036;-67
2021/08/03 06:33:30;;;;;;;2.15;0.40;;;17.10;99.90;;;;;;5073588;28;20112;-67
2021/08/03 06:35:56;;;;;;;2.95;0.30;;;17.30;99.90;;;;;;5072275;28;20106;-74
2021/08/03 06:38:22;;;;;;;1.17;0.60;;;17.40;99.90;;;;;;5073888;28;20047;-67
2021/08/03 06:41:07;;;;;;;0.77;0.38;;;17.50;99.90;;;;;;5070877;28;20028;-68
2021/08/03 06:43:35;;;;;;;1.98;0.30;;;17.50;99.90;;;;;;5071061;28;20039;-67
2021/08/03 06:46:07;;;;;;;2.40;0.30;;;17.40;99.90;;;;;;5072628;28;20109;-67
2021/08/03 06:49:01;;;;;;;1.77;0.20;;;17.30;99.90;;;;;;5073503;28;20032;-67
2021/08/03 06:51:32;;;;;;;1.42;0.20;;;17.20;99.90;;;;;;5072065;28;20497;-68
2021/08/03 06:54:02;;;;;;;5.25;0.20;;;17.10;99.90;;;;;;5071336;28;20036;-67
2021/08/03 06:56:33;;;;;;;1.17;0.40;;;17.00;99.90;;;;;;5090667;28;20028;-67
2021/08/03 06:59:09;;;;;;;1.85;0.32;;;17.10;99.90;;;;;;5093021;28;20757;-67
2021/08/03 07:01:46;;;;;;;11.05;1.15;;;17.20;99.90;;;;;;5068135;28;20041;-67
2021/08/03 07:04:13;;;;;;;1.90;0.25;;;17.40;99.90;;;;;;5068796;28;20037;-68
2021/08/03 07:06:45;;;;;;;2.55;0.63;;;17.50;99.90;;;;;;5069550;28;20090;-67
2021/08/03 07:09:11;;;;;;;4.07;1.02;;;17.50;99.90;;;;;;5063682;28;20037;-67
2021/08/03 07:11:39;;;;;;;1.38;0.40;;;17.60;99.90;;;;;;5093110;28;20044;-66
2021/08/03 07:14:05;;;;;;;2.42;0.38;;;17.60;99.90;;;;;;5091234;28;20051;-67
2021/08/03 07:16:31;;;;;;;5.68;0.82;;;17.60;99.90;;;;;;5091610;28;20040;-67
2021/08/03 07:18:58;;;;;;;0.47;0.30;;;17.60;99.90;;;;;;5094035;28;20032;-67
2021/08/03 07:21:25;;;;;;;1.23;0.47;;;17.40;99.90;;;;;;5090829;28;20518;-67
2021/08/03 07:23:55;;;;;;;3.78;0.30;;;17.40;99.90;;;;;;5093076;28;20119;-67
2021/08/03 07:26:21;;;;;;;3.90;0.20;;;17.50;99.90;;;;;;5088349;28;20461;-68
2021/08/03 07:28:47;;;;;;;0.43;0.20;;;18.10;99.90;;;;;;5072005;28;20032;-67
2021/08/03 07:31:13;;;;;;;1.80;0.43;;;19.20;99.90;;;;;;5092456;28;20039;-67
2021/08/03 07:33:39;;;;;;;2.10;0.20;;;20.10;99.90;;;;;;5066405;28;20037;-67
2021/08/03 07:36:04;;;;;;;2.60;0.35;;;20.40;99.90;;;;;;5070825;28;20093;-67
2021/08/03 07:38:30;;;;;;;2.30;0.60;;;20.40;99.90;;;;;;5066022;28;20029;-67
2021/08/03 07:40:55;;;;;;;1.48;0.20;;;20.30;99.90;;;;;;5067047;28;20063;-67
2021/08/03 07:43:21;;;;;;;9.60;0.47;;;20.00;99.90;;;;;;5068504;28;20032;-67
2021/08/03 07:45:47;;;;;;;1.80;0.25;;;19.90;99.90;;;;;;5068245;28;20032;-65
2021/08/03 07:48:13;;;;;;;0.70;0.30;;;19.70;99.90;;;;;;5068000;28;20133;-65
2021/08/03 07:50:39;;;;;;;2.35;0.22;;;19.60;99.90;;;;;;5067369;28;20038;-65
2021/08/03 07:53:05;;;;;;;2.20;0.10;;;19.60;99.90;;;;;;5067891;28;20040;-65
2021/08/03 07:55:31;;;;;;;0.90;0.15;;;19.50;99.90;;;;;;5067645;28;20069;-65
2021/08/03 07:57:56;;;;;;;0.93;0.22;;;19.30;99.90;;;;;;5068403;28;20400;-64
2021/08/03 08:00:22;;;;;;;2.90;0.90;;;19.10;99.90;;;;;;5066477;28;20033;-66
2021/08/03 08:02:47;;;;;;;1.90;0.10;;;19.00;99.90;;;;;;5068521;28;20029;-65
2021/08/03 08:05:14;;;;;;;1.65;0.30;;;18.90;99.90;;;;;;5068738;28;20542;-65
2021/08/03 08:07:40;;;;;;;1.17;0.55;;;18.80;99.90;;;;;;5066073;28;20123;-65
2021/08/03 08:10:06;;;;;;;0.88;0.30;;;18.70;99.90;;;;;;5068290;28;20032;-65
2021/08/03 08:12:31;;;;;;;3.45;0.32;;;18.70;99.90;;;;;;5067789;28;20043;-65
2021/08/03 08:14:57;;;;;;;5.18;0.40;;;18.80;99.90;;;;;;5068188;28;20024;-65
2021/08/03 08:17:23;;;;;;;3.83;0.30;;;18.80;99.90;;;;;;5067977;28;20033;-65
2021/08/03 08:19:49;;;;;;;3.88;0.43;;;18.80;99.90;;;;;;5066671;28;20557;-65
2021/08/03 08:22:14;;;;;;;3.30;0.60;;;18.80;99.90;;;;;;5067758;28;20115;-65
2021/08/03 08:24:40;;;;;;;0.85;0.32;;;18.80;99.90;;;;;;5067458;28;20039;-65
2021/08/03 08:27:06;;;;;;;1.15;0.30;;;18.80;99.90;;;;;;5067529;28;20564;-65
2021/08/03 08:29:32;;;;;;;1.88;0.35;;;18.80;99.90;;;;;;5067365;28;20119;-65
2021/08/03 08:31:58;;;;;;;5.07;0.40;;;18.80;99.90;;;;;;5068364;28;20111;-65
2021/08/03 08:34:23;;;;;;;2.08;0.20;;;18.70;99.90;;;;;;5068367;28;20136;-64
2021/08/03 08:36:50;;;;;;;3.50;0.43;;;18.80;99.90;;;;;;5066942;28;20041;-66
2021/08/03 08:39:16;;;;;;;1.55;0.20;;;18.90;99.90;;;;;;5068224;28;20512;-65
2021/08/03 08:41:42;;;;;;;3.42;0.40;;;19.10;99.90;;;;;;5067048;28;20127;-65
2021/08/03 08:44:10;;;;;;;0.90;0.38;;;19.20;99.90;;;;;;5066817;28;20036;-66
2021/08/03 08:46:36;;;;;;;0.65;0.20;;;19.40;99.90;;;;;;5064992;28;20044;-65
2021/08/03 08:49:04;;;;;;;1.65;0.32;;;19.70;99.90;;;;;;5066572;28;20090;-65
2021/08/03 08:51:31;;;;;;;1.88;0.20;;;20.00;99.90;;;;;;5066772;28;20044;-65
2021/08/03 08:53:58;;;;;;;4.40;0.60;;;20.10;99.90;;;;;;5065086;28;20039;-65
2021/08/03 08:56:24;;;;;;;2.60;0.40;;;20.10;99.90;;;;;;5066569;28;20136;-65
2021/08/03 08:58:50;;;;;;;2.10;0.45;;;19.70;99.90;;;;;;5066404;28;20840;-65
2021/08/03 09:01:15;;;;;;;0.93;0.08;;;19.70;99.90;;;;;;5066805;28;20115;-65
2021/08/03 09:03:41;;;;;;;2.03;0.25;;;19.50;99.90;;;;;;5064277;28;20036;-66
2021/08/03 09:06:07;;;;;;;1.27;0.40;;;19.40;99.90;;;;;;5067531;28;20559;-65
2021/08/03 09:08:38;;;;;;;1.38;0.38;;;19.30;99.90;;;;;;5066938;28;20055;-65
2021/08/03 09:11:12;;;;;;;1.58;0.30;;;19.50;99.90;;;;;;5086845;28;20050;-65
2021/08/03 09:14:09;;;;;;;2.13;0.10;;;19.70;99.90;;;;;;5087182;28;20036;-66
2021/08/03 09:16:44;;;;;;;0.98;0.30;;;19.70;99.90;;;;;;5056082;28;20118;-65
2021/08/03 09:19:30;;;;;;;1.92;0.20;;;20.00;99.90;;;;;;5086284;28;20036;-66
2021/08/03 09:22:29;;;;;;;1.70;0.20;;;20.30;99.90;;;;;;5085265;28;20059;-66
2021/08/03 09:25:27;;;;;;;3.20;0.40;;;20.50;99.90;;;;;;5050701;28;20071;-66
2021/08/03 09:27:52;;;;;;;1.38;0.30;;;20.60;99.90;;;;;;5050662;28;20040;-65
2021/08/03 09:30:18;;;;;;;1.75;0.40;;;20.80;99.90;;;;;;5086856;28;20083;-65
2021/08/03 09:32:45;;;;;;;2.50;0.30;;;21.00;99.90;;;;;;5086087;28;20024;-65
2021/08/03 09:35:13;;;;;;;0.75;0.20;;;21.00;99.90;;;;;;5086208;28;20043;-66
2021/08/03 09:37:40;;;;;;;4.93;0.32;;;21.20;99.90;;;;;;5084544;28;20039;-69
2021/08/03 09:40:34;;;;;;;1.10;0.40;;;21.10;99.90;;;;;;5086241;28;20086;-66
2021/08/03 09:43:06;;;;;;;2.13;0.35;;;21.20;99.90;;;;;;5075391;28;20036;-66
2021/08/03 09:45:55;;;;;;;1.60;0.32;;;21.30;99.90;;;;;;5086381;28;20050;-65
2021/08/03 09:48:23;;;;;;;4.88;0.77;;;21.60;99.90;;;;;;5074410;28;20032;-65
2021/08/03 09:51:05;;;;;;;1.92;0.40;;;21.60;99.90;;;;;;5065890;28;20508;-65
2021/08/03 09:53:52;;;;;;;4.90;0.38;;;21.70;99.90;;;;;;5056285;28;20055;-66
2021/08/03 09:56:26;;;;;;;1.38;0.40;;;21.70;99.90;;;;;;5063956;28;20044;-65
2021/08/03 09:59:07;;;;;;;2.08;0.52;;;21.60;99.90;;;;;;5069621;28;20060;-64
2021/08/03 10:01:36;;;;;;;;;;;21.80;99.90;;;;;;5070099;28;20392;-65
2021/08/03 10:04:12;;;;;;;1.03;0.60;;;21.80;99.80;;;;;;5069848;28;19913;-65
2021/08/03 10:06:40;;;;;;;4.63;0.32;;;21.90;99.40;;;;;;5069049;28;20286;-65
2021/08/03 10:09:11;;;;;;;3.67;1.05;;;22.00;99.90;;;;;;5068288;28;20024;-65
2021/08/03 10:11:36;;;;;;;1.27;0.50;;;22.00;99.90;;;;;;5068471;28;20033;-66
2021/08/03 10:14:05;;;;;;;3.47;0.80;;;22.00;99.60;;;;;;5069951;28;20059;-65
2021/08/03 10:16:31;;;;;;;3.30;0.50;;;21.90;99.70;;;;;;5069654;28;20028;-65
2021/08/03 10:19:00;;;;;;;4.90;0.50;;;21.90;99.80;;;;;;5069475;28;20082;-65
2021/08/03 10:21:47;;;;;;;3.35;0.82;;;22.00;99.90;;;;;;5069118;28;20120;-66
2021/08/03 10:24:21;;;;;;;1.38;0.40;;;22.40;98.00;;;;;;5050213;28;20120;-65
2021/08/03 10:27:06;;;;;;;2.63;0.70;;;22.70;97.10;;;;;;5089124;28;20047;-65
2021/08/03 10:29:34;;;;;;;3.75;0.73;;;22.80;98.00;;;;;;5073563;28;20501;-65
2021/08/03 10:31:59;;;;;;;2.38;0.45;;;22.80;97.90;;;;;;5088892;28;20043;-65
2021/08/03 10:34:43;;;;;;;1.85;0.45;;;22.80;97.80;;;;;;5088905;28;20036;-66
2021/08/03 10:37:13;;;;;;;2.75;0.60;;;22.80;98.20;;;;;;5075149;28;20462;-65
2021/08/03 10:40:07;;;;;;;1.63;0.70;;;22.70;98.70;;;;;;5088686;28;20055;-65
2021/08/03 10:42:33;;;;;;;3.30;1.05;;;22.60;98.70;;;;;;5055043;28;20036;-65
2021/08/03 10:45:01;;;;;;;3.30;0.70;;;22.30;97.20;;;;;;5088465;28;20451;-64
2021/08/03 10:47:39;;;;;;;2.90;0.43;;;22.20;97.30;;;;;;5088246;28;20032;-66
2021/08/03 10:50:14;;;;;;;1.02;0.50;;;21.80;98.00;;;;;;5086194;28;20127;-65
2021/08/03 10:52:49;;;;;;;2.50;0.70;;;21.60;98.40;;;;;;5085996;28;20024;-65
2021/08/03 10:55:34;;;;;;;2.20;0.80;;;21.70;98.20;;;;;;5089260;28;20040;-65
2021/08/03 10:58:09;;;;;;;1.55;0.70;;;22.20;96.90;;;;;;5087664;28;20065;-65
2021/08/03 11:00:47;;;;;;;2.60;1.02;;;22.30;97.60;;;;;;5086516;28;20036;-65
2021/08/03 11:03:34;;;;;;;3.25;0.93;;;22.50;97.40;;;;;;5087301;28;20051;-65
2021/08/03 11:06:05;;;;;;;3.92;0.90;;;22.60;96.10;;;;;;5089529;28;20035;-65
2021/08/03 11:08:40;;;;;;;2.72;1.13;;;22.60;95.40;;;;;;5077301;28;20041;-65
2021/08/03 11:11:13;;;;;;;2.47;0.90;;;22.60;95.90;;;;;;5067208;28;20068;-65
2021/08/03 11:13:44;;;;;;;3.97;1.35;;;22.70;96.50;;;;;;5067655;28;20032;-65
2021/08/03 11:16:30;;;;;;;1.38;0.82;;;22.70;95.10;;;;;;5068046;28;20052;-65
2021/08/03 11:19:01;;;;;;;1.23;0.68;;;22.60;96.30;;;;;;5054367;28;20086;-65
2021/08/03 11:21:29;;;;;;;4.97;1.02;;;22.70;97.70;;;;;;5069289;28;20492;-65
2021/08/03 11:24:14;;;;;;;3.55;1.00;;;22.70;96.60;;;;;;5068729;28;20040;-65
2021/08/03 11:26:54;;;;;;;2.95;1.08;;;22.80;95.60;;;;;;5069415;28;20025;-66
2021/08/03 11:29:23;;;;;;;3.28;1.05;;;22.80;95.70;;;;;;5070017;28;20033;-65
2021/08/03 11:31:58;;;;;;;2.60;1.17;;;22.70;97.00;;;;;;5068957;28;20747;-65
2021/08/03 11:34:31;;;;;;;4.32;1.00;;;22.70;96.60;;;;;;5069884;28;20448;-65
2021/08/03 11:37:01;;;;;;;2.80;0.73;;;22.50;97.50;;;;;;5068441;28;20085;-65
2021/08/03 11:39:36;;;;;;;3.33;1.35;;;22.20;96.90;;;;;;5069623;28;20032;-65
2021/08/03 11:42:02;;;;;;;5.38;1.88;;;21.90;96.70;;;;;;5065579;28;20101;-65
2021/08/03 11:44:28;;;;;;;3.92;1.38;;;21.60;96.00;;;;;;5069406;28;20040;-65
2021/08/03 11:47:01;;;;;;;2.88;1.20;;;21.20;97.30;;;;;;5067540;28;20373;-65
2021/08/03 11:49:32;;;;;;;4.32;1.13;;;20.90;98.10;;;;;;5068711;28;20080;-65
2021/08/03 11:52:16;;;;;;;3.75;1.80;;;20.60;98.80;;;;;;5068286;28;20110;-64
2021/08/03 11:54:45;;;;;;;5.20;2.47;;;20.30;99.90;;;;;;5066303;28;20036;-65
2021/08/03 11:57:23;;;;;;;6.07;2.40;;;20.10;99.90;;;;;;5068872;28;20085;-64
2021/08/03 12:00:16;;;;;;;8.68;2.00;;;19.70;99.90;;;;;;5066231;28;20053;-64
2021/08/03 12:02:44;;;;;;;3.42;1.60;;;19.50;99.90;;;;;;5052517;28;20036;-65
2021/08/03 12:05:21;;;;;;;5.18;1.63;;;19.30;99.90;;;;;;5069052;28;20539;-65
2021/08/03 12:07:51;;;;;;;4.45;2.10;;;19.10;99.90;;;;;;5068182;28;20056;-65
2021/08/03 12:10:19;;;;;;;9.77;2.60;;;19.10;99.90;;;;;;5067273;28;20119;-64
2021/08/03 12:12:46;;;;;;;4.78;2.15;;;18.90;99.90;;;;;;5068519;28;20043;-65
2021/08/03 12:15:15;;;;;;;4.38;2.75;;;18.80;99.90;;;;;;5068947;28;20163;-65
2021/08/03 12:17:41;;;;;;;4.40;2.85;;;18.70;99.90;;;;;;5068462;28;20495;-64
2021/08/03 12:20:28;;;;;;;5.97;2.92;;;18.60;99.90;;;;;;5068759;28;20029;-64
2021/08/03 12:22:55;;;;;;;7.53;3.38;;;18.30;99.90;;;;;;5068716;28;20503;-64
2021/08/03 12:25:20;;;;;;;4.45;2.55;;;18.20;99.90;;;;;;5069642;28;20058;-64
2021/08/03 12:27:48;;;;;;;4.38;1.90;;;18.30;99.90;;;;;;5064336;28;20036;-66
2021/08/03 12:30:37;;;;;;;5.13;2.75;;;18.40;99.90;;;;;;5068263;28;20036;-64
2021/08/03 12:33:04;;;;;;;6.22;3.65;;;18.50;99.90;;;;;;5066529;28;20040;-64
2021/08/03 12:35:30;;;;;;;6.55;2.80;;;18.70;99.90;;;;;;5066050;28;20082;-64
2021/08/03 12:38:17;;;;;;;4.10;2.47;;;18.80;99.90;;;;;;5067951;28;20024;-65
2021/08/03 12:40:43;;;;;;;3.50;2.10;;;19.00;99.90;;;;;;5066262;28;20458;-65
2021/08/03 12:43:09;;;;;;;6.88;2.72;;;19.20;99.90;;;;;;5068228;28;20109;-64
2021/08/03 12:45:35;;;;;;;4.55;1.85;;;19.30;99.90;;;;;;5067016;28;20143;-64
2021/08/03 12:48:02;;;;;;;2.97;1.90;;;19.50;99.90;;;;;;5067952;28;20039;-64
2021/08/03 12:50:29;;;;;;;6.07;2.28;;;19.70;99.90;;;;;;5068379;28;20071;-65
2021/08/03 12:52:59;;;;;;;6.20;2.38;;;19.80;99.90;;;;;;5066549;28;20035;-65
2021/08/03 12:58:33;;;;;;;5.18;2.92;;;19.90;99.90;;;;;;5039482;28;20704;-65
2021/08/03 13:01:16;;;;;;;5.93;2.42;;;20.00;99.90;;;;;;5066936;28;20111;-64
2021/08/03 13:03:42;;;;;;;5.88;3.40;;;20.10;99.90;;;;;;5087729;28;20176;-64
2021/08/03 13:06:08;;;;;;;5.05;2.67;;;20.40;99.90;;;;;;5088387;28;20123;-65